Whitetop, Virginia
Current Conditions -  °F | °C
As of 11:15 PM on Tuesday 21 Oct 2014 (Local Time) from KGEV Reporting Station
Scattered Clouds Scattered Clouds  
Wind Chill: 34°   Ceiling: Unl
Heat Index: 42°   Visibility: 10mi
Dew Point: 32°   Wind: 17mph
Humidity: 68%   Direction: 310°NW
Pressure: 30"   Gusts: 29mph
Location:  36.6°N, 81.63°W
Report Text: KGEV 220315Z AUTO 31015G25KT 10SM SCT025 06/00 A3000 RMK AO2 T00570002
Loading
Personal Weather Stations






























Interactive Weather Map New forecast layout! Learn more

10-Day Weather Forecast

Advertisements
Track Severe Weather on mobile